Aérodrome :
LOGIN :

S'inscrire | Disclaimer

   EN    FR    IT 

 










Légende :    VFR   VFR Marginal   IFR   IFR Intensif   IFR Très Intensif
Visi : 
Plafond : 
>= 8 km
>= 3000ft
5 à 8 km
1000 à 3000 ft
1500m à 5 km
500 à 1000 ft
800 à 1500m
200 à 500 ft
< 800m
< 200 ft
Symboles :   Orages  Brouillard  Fortes neiges  Fortes précipitations  Vent > 20 kt
SIGMETs :   Divers  Orages  Givrage  Turbulence  Onde Orograph.  Cendres Volcan.






- Altitude de l'aérodrome : 1708 ft
- Code IATA : SJJ


LQSA - Sarajevo

DERNIER METAR :
  • 241730Z 04004KT 360V080 CAVOK 26/11 Q1009 NOSIG

METARs EXPIRÉS :
  • 241700Z 02006KT 350V080 CAVOK 27/11 Q1009 NOSIG
  • 241630Z 01005KT 320V050 CAVOK 29/10 Q1009 NOSIG
  • 241600Z VRB03KT CAVOK 31/09 Q1018 NOSIG
  • 241530Z 01004KT 310V080 CAVOK 30/13 Q1008 NOSIG
  • 241500Z VRB03KT CAVOK 30/14 Q1009 NOSIG

TAF TAF LQSA
Valide du 24 à 18h jusqu'au 25 à 18h UTC


241700Z 2418/2518 VRB04KT CAVOK TX31/2515Z TN11/2504Z
PROB30
TEMPO 2515/2518 VRB14KT TS FEW040CB SCT065



MET'MAP, la Météo Aéronautique d'un coup d'oeil ! - Copyright ORBIFLY Décembre 2007 - Disclaimer

ORBIFLY MET'MAP TEAM :

Programmation & Développement : Alexandra Zaïnal
Sur une idée originale de : Baudouin d'Aumeries
Soutien technique & logistique : Manuel Goepfert
Assistance : Marc-Olivier Méhu

Contact : metmap@orbifly.com




SOURCES & CREDITS :

   NOAA